Time,TemperatureF,DewpointF,PressureIn,WindDirection,WindDirectionDegrees,WindSpeedMPH,WindSpeedGustMPH,Humidity,HourlyPrecipIn,Conditions,Clouds,dailyrainin,SoftwareType,DateUTC
2013-03-05 00:05:00,36.7,28.5,29.99,West,259,1.0,1.0,72,0.00,,,0.00,Wunderground v.1.15,2013-03-05 08:05:00,
2013-03-05 00:11:00,36.0,28.2,29.99,West,259,1.0,1.0,73,0.00,,,0.00,Wunderground v.1.15,2013-03-05 08:11:00,
2013-03-05 00:16:00,36.2,28.4,29.99,West,259,0.0,1.0,73,0.00,,,0.00,Wunderground v.1.15,2013-03-05 08:16:00,
2013-03-05 00:22:00,37.0,28.8,29.99,WSW,253,1.0,1.0,72,0.00,,,0.00,Wunderground v.1.15,2013-03-05 08:22:00,
2013-03-05 00:28:00,37.7,28.8,29.99,WSW,250,1.0,1.0,70,0.00,,,0.00,Wunderground v.1.15,2013-03-05 08:28:00,
2013-03-05 00:33:00,36.9,28.4,29.99,WSW,248,1.0,2.0,71,0.00,,,0.00,Wunderground v.1.15,2013-03-05 08:33:00,
2013-03-05 00:39:00,36.5,28.7,29.99,SSW,209,1.0,3.0,73,0.00,,,0.00,Wunderground v.1.15,2013-03-05 08:39:00,
2013-03-05 00:45:00,36.1,28.9,29.99,SSW,212,2.0,3.0,75,0.00,,,0.00,Wunderground v.1.15,2013-03-05 08:45:00,
2013-03-05 00:51:00,35.9,29.1,29.99,SSW,205,3.0,3.0,76,0.00,,,0.00,Wunderground v.1.15,2013-03-05 08:51:00,
2013-03-05 00:57:00,35.9,29.7,29.99,SW,214,3.0,4.0,78,0.00,,,0.00,Wunderground v.1.15,2013-03-05 08:57:00,
2013-03-05 01:02:00,35.8,29.9,29.99,SW,217,3.0,3.0,79,0.00,,,0.00,Wunderground v.1.15,2013-03-05 09:02:00,
2013-03-05 01:08:00,36.0,30.1,29.99,SW,221,2.0,3.0,79,0.00,,,0.00,Wunderground v.1.15,2013-03-05 09:08:00,
2013-03-05 01:14:00,35.5,29.6,30.00,WSW,248,2.0,3.0,79,0.00,,,0.00,Wunderground v.1.15,2013-03-05 09:14:00,
2013-03-05 01:20:00,34.6,29.7,30.00,WSW,242,2.0,2.0,82,0.00,,,0.00,Wunderground v.1.15,2013-03-05 09:20:00,
2013-03-05 01:25:00,34.1,29.8,30.00,SW,236,2.0,3.0,84,0.00,,,0.00,Wunderground v.1.15,2013-03-05 09:25:00,
2013-03-05 01:31:00,33.6,29.6,30.00,SW,224,2.0,3.0,85,0.00,,,0.00,Wunderground v.1.15,2013-03-05 09:31:00,
2013-03-05 01:37:00,33.5,29.8,30.00,WSW,248,3.0,3.0,86,0.00,,,0.00,Wunderground v.1.15,2013-03-05 09:37:00,
2013-03-05 01:43:00,33.4,29.7,30.00,WSW,241,3.0,4.0,86,0.00,,,0.00,Wunderground v.1.15,2013-03-05 09:43:00,
2013-03-05 01:49:00,33.5,29.8,29.99,West,267,3.0,4.0,86,0.00,,,0.00,Wunderground v.1.15,2013-03-05 09:49:00,
2013-03-05 01:55:00,32.8,28.8,29.99,West,267,1.0,2.0,85,0.00,,,0.00,Wunderground v.1.15,2013-03-05 09:55:00,
2013-03-05 02:00:00,32.5,28.8,29.99,West,266,0.0,0.0,86,0.00,,,0.00,Wunderground v.1.15,2013-03-05 10:00:00,
2013-03-05 02:06:00,32.6,29.2,29.99,West,266,0.0,1.0,87,0.00,,,0.00,Wunderground v.1.15,2013-03-05 10:06:00,
2013-03-05 02:11:00,33.7,30.2,29.99,West,266,0.0,0.0,87,0.00,,,0.00,Wunderground v.1.15,2013-03-05 10:11:00,
2013-03-05 02:17:00,34.4,29.8,29.98,West,266,0.0,0.0,83,0.00,,,0.00,Wunderground v.1.15,2013-03-05 10:17:00,
2013-03-05 02:22:00,34.8,29.9,29.99,WSW,241,0.0,1.0,82,0.00,,,0.00,Wunderground v.1.15,2013-03-05 10:22:00,
2013-03-05 02:28:00,35.2,30.0,29.98,West,264,1.0,2.0,81,0.00,,,0.00,Wunderground v.1.15,2013-03-05 10:28:00,
2013-03-05 02:34:00,34.7,29.2,29.98,WSW,239,1.0,2.0,80,0.00,,,0.00,Wunderground v.1.15,2013-03-05 10:34:00,
2013-03-05 02:40:00,34.4,29.8,29.98,WSW,254,1.0,2.0,83,0.00,,,0.00,Wunderground v.1.15,2013-03-05 10:40:00,
2013-03-05 02:46:00,33.8,29.5,29.98,WSW,242,2.0,3.0,84,0.00,,,0.00,Wunderground v.1.15,2013-03-05 10:46:00,
2013-03-05 02:51:00,33.5,29.5,29.98,SW,221,2.0,2.0,85,0.00,,,0.00,Wunderground v.1.15,2013-03-05 10:51:00,
2013-03-05 02:57:00,33.2,29.2,29.98,SW,225,2.0,3.0,85,0.00,,,0.00,Wunderground v.1.15,2013-03-05 10:57:00,
2013-03-05 03:03:00,32.8,29.1,29.98,SW,225,3.0,3.0,86,0.00,,,0.00,Wunderground v.1.15,2013-03-05 11:03:00,
2013-03-05 03:08:00,33.2,29.8,29.98,SW,230,3.0,4.0,87,0.00,,,0.00,Wunderground v.1.15,2013-03-05 11:08:00,
2013-03-05 03:14:00,33.6,29.9,29.97,SW,216,3.0,4.0,86,0.00,,,0.00,Wunderground v.1.15,2013-03-05 11:14:00,
2013-03-05 03:20:00,34.0,30.5,29.97,SW,216,4.0,4.0,87,0.00,,,0.00,Wunderground v.1.15,2013-03-05 11:20:00,
2013-03-05 03:26:00,33.8,30.3,29.97,SW,217,3.0,4.0,87,0.00,,,0.00,Wunderground v.1.15,2013-03-05 11:26:00,
2013-03-05 03:31:00,33.5,30.0,29.97,SW,223,3.0,4.0,87,0.00,,,0.00,Wunderground v.1.15,2013-03-05 11:31:00,
2013-03-05 03:37:00,33.5,30.0,29.97,SW,233,3.0,4.0,87,0.00,,,0.00,Wunderground v.1.15,2013-03-05 11:37:00,
2013-03-05 03:42:00,33.4,29.9,29.97,WSW,249,3.0,3.0,87,0.00,,,0.00,Wunderground v.1.15,2013-03-05 11:42:00,
2013-03-05 03:48:00,33.2,29.8,29.97,SW,229,3.0,3.0,87,0.00,,,0.00,Wunderground v.1.15,2013-03-05 11:48:00,
2013-03-05 03:54:00,33.3,29.8,29.97,SW,225,2.0,3.0,87,0.00,,,0.00,Wunderground v.1.15,2013-03-05 11:54:00,
2013-03-05 04:00:00,33.1,29.7,29.97,SW,231,2.0,2.0,87,0.00,,,0.00,Wunderground v.1.15,2013-03-05 12:00:00,
2013-03-05 04:06:00,33.1,29.9,29.97,SSW,209,2.0,3.0,88,0.00,,,0.00,Wunderground v.1.15,2013-03-05 12:06:00,
2013-03-05 04:12:00,32.8,29.6,29.96,West,278,3.0,4.0,88,0.00,,,0.00,Wunderground v.1.15,2013-03-05 12:12:00,
2013-03-05 04:18:00,32.3,29.1,29.97,West,270,3.0,4.0,88,0.00,,,0.00,Wunderground v.1.15,2013-03-05 12:18:00,
2013-03-05 04:23:00,31.1,27.4,29.97,West,271,3.0,3.0,86,0.00,,,0.00,Wunderground v.1.15,2013-03-05 12:23:00,
2013-03-05 04:29:00,31.1,27.4,29.97,West,271,3.0,3.0,86,0.00,,,0.00,Wunderground v.1.15,2013-03-05 12:29:00,
2013-03-05 04:35:00,-999.9,-99.9,29.97,North,32767,-999.0,3.0,255,-99.99,,,0.00,Wunderground v.1.15,2013-03-05 12:35:00,
2013-03-05 04:41:00,-999.9,-99.9,29.97,North,32767,-999.0,0.0,255,-99.99,,,0.00,Wunderground v.1.15,2013-03-05 12:41:00,
2013-03-05 04:48:00,-999.9,-99.9,29.97,North,32767,-999.0,0.0,255,-99.99,,,0.00,Wunderground v.1.15,2013-03-05 12:48:00,
2013-03-05 04:54:00,-999.9,-99.9,29.97,North,32767,-999.0,0.0,255,-99.99,,,0.00,Wunderground v.1.15,2013-03-05 12:54:00,
2013-03-05 04:59:00,-999.9,-99.9,29.97,North,32767,-999.0,0.0,255,-99.99,,,0.00,Wunderground v.1.15,2013-03-05 12:59:00,
2013-03-05 05:04:00,-999.9,-99.9,29.97,North,32767,-999.0,0.0,255,-99.99,,,0.00,Wunderground v.1.15,2013-03-05 13:04:00,
2013-03-05 05:10:00,-999.9,-99.9,29.97,North,32767,-999.0,0.0,255,-99.99,,,0.00,Wunderground v.1.15,2013-03-05 13:10:00,
2013-03-05 05:15:00,-999.9,-99.9,29.97,North,32767,-999.0,0.0,255,-99.99,,,0.00,Wunderground v.1.15,2013-03-05 13:15:00,
2013-03-05 05:21:00,-999.9,-99.9,29.97,North,32767,-999.0,0.0,255,-99.99,,,0.00,Wunderground v.1.15,2013-03-05 13:21:00,
2013-03-05 05:26:00,-999.9,-99.9,29.97,North,32767,-999.0,0.0,255,-99.99,,,0.00,Wunderground v.1.15,2013-03-05 13:26:00,
2013-03-05 05:31:00,-999.9,-99.9,29.97,North,32767,-999.0,0.0,255,-99.99,,,0.00,Wunderground v.1.15,2013-03-05 13:31:00,
2013-03-05 05:38:00,-999.9,-99.9,29.97,North,32767,-999.0,0.0,255,-99.99,,,0.00,Wunderground v.1.15,2013-03-05 13:38:00,
2013-03-05 05:43:00,-999.9,-99.9,29.97,North,32767,-999.0,0.0,255,-99.99,,,0.00,Wunderground v.1.15,2013-03-05 13:43:00,
2013-03-05 05:48:00,-999.9,-99.9,29.97,North,32767,-999.0,0.0,255,-99.99,,,0.00,Wunderground v.1.15,2013-03-05 13:48:00,
2013-03-05 05:54:00,-999.9,-99.9,29.96,North,32767,-999.0,0.0,255,-99.99,,,0.00,Wunderground v.1.15,2013-03-05 13:54:00,
2013-03-05 05:59:00,-999.9,-99.9,29.96,North,32767,-999.0,0.0,255,-99.99,,,0.00,Wunderground v.1.15,2013-03-05 13:59:00,
2013-03-05 06:05:00,-999.9,-99.9,29.96,North,32767,-999.0,0.0,255,-99.99,,,0.00,Wunderground v.1.15,2013-03-05 14:05:00,
2013-03-05 06:10:00,-999.9,-99.9,29.96,North,32767,-999.0,0.0,255,-99.99,,,0.00,Wunderground v.1.15,2013-03-05 14:10:00,
2013-03-05 06:16:00,-999.9,-99.9,29.96,North,32767,-999.0,0.0,255,-99.99,,,0.00,Wunderground v.1.15,2013-03-05 14:16:00,
2013-03-05 06:21:00,-999.9,-99.9,29.97,North,32767,-999.0,0.0,255,-99.99,,,0.00,Wunderground v.1.15,2013-03-05 14:21:00,
2013-03-05 06:28:00,-999.9,-99.9,29.96,North,32767,-999.0,0.0,255,-99.99,,,0.00,Wunderground v.1.15,2013-03-05 14:28:00,
2013-03-05 06:34:00,-999.9,-99.9,29.96,North,32767,-999.0,0.0,255,-99.99,,,0.00,Wunderground v.1.15,2013-03-05 14:34:00,
2013-03-05 06:39:00,-999.9,-99.9,29.96,North,32767,-999.0,0.0,255,-99.99,,,0.00,Wunderground v.1.15,2013-03-05 14:39:00,
2013-03-05 06:45:00,-999.9,-99.9,29.96,North,32767,-999.0,0.0,255,-99.99,,,0.00,Wunderground v.1.15,2013-03-05 14:45:00,
2013-03-05 06:51:00,-999.9,-99.9,29.96,North,32767,-999.0,0.0,255,-99.99,,,0.00,Wunderground v.1.15,2013-03-05 14:51:00,
2013-03-05 06:56:00,-999.9,-99.9,29.96,North,32767,-999.0,0.0,255,-99.99,,,0.00,Wunderground v.1.15,2013-03-05 14:56:00,
2013-03-05 07:02:00,32.3,29.4,29.96,WSW,238,1.0,1.0,89,0.00,,,0.00,Wunderground v.1.15,2013-03-05 15:02:00,
2013-03-05 07:07:00,33.1,29.9,29.95,SW,220,1.0,1.0,88,0.00,,,0.00,Wunderground v.1.15,2013-03-05 15:07:00,
2013-03-05 07:13:00,34.0,30.5,29.95,SW,216,0.0,1.0,87,0.00,,,0.00,Wunderground v.1.15,2013-03-05 15:13:00,
2013-03-05 07:18:00,34.5,30.7,29.96,WSW,240,0.0,1.0,86,0.00,,,0.00,Wunderground v.1.15,2013-03-05 15:18:00,
2013-03-05 07:24:00,34.4,30.9,29.96,WSW,241,0.0,0.0,87,0.00,,,0.00,Wunderground v.1.15,2013-03-05 15:24:00,
2013-03-05 07:30:00,34.7,31.2,29.96,WSW,254,0.0,1.0,87,0.00,,,0.00,Wunderground v.1.15,2013-03-05 15:30:00,
2013-03-05 07:36:00,34.3,30.8,29.97,WSW,258,1.0,3.0,87,0.00,,,0.00,Wunderground v.1.15,2013-03-05 15:36:00,
2013-03-05 07:42:00,35.1,31.9,29.97,WSW,243,1.0,2.0,88,0.00,,,0.00,Wunderground v.1.15,2013-03-05 15:42:00,
2013-03-05 07:47:00,35.8,32.3,29.97,WSW,250,1.0,2.0,87,0.00,,,0.00,Wunderground v.1.15,2013-03-05 15:47:00,
2013-03-05 07:53:00,36.3,32.5,29.97,WSW,249,1.0,2.0,86,0.00,,,0.00,Wunderground v.1.15,2013-03-05 15:53:00,
2013-03-05 07:58:00,36.9,32.5,29.97,WSW,249,2.0,2.0,84,0.00,,,0.00,Wunderground v.1.15,2013-03-05 15:58:00,
2013-03-05 08:04:00,37.7,33.0,29.97,WSW,249,1.0,1.0,83,0.00,,,0.00,Wunderground v.1.15,2013-03-05 16:04:00,
2013-03-05 08:10:00,38.6,33.0,29.97,WSW,250,0.0,0.0,80,0.00,,,0.00,Wunderground v.1.15,2013-03-05 16:10:00,
2013-03-05 08:16:00,40.0,33.4,29.97,WSW,250,0.0,0.0,77,0.00,,,0.00,Wunderground v.1.15,2013-03-05 16:16:00,
2013-03-05 08:21:00,42.4,34.0,29.97,WSW,250,0.0,0.0,72,0.00,,,0.00,Wunderground v.1.15,2013-03-05 16:21:00,
2013-03-05 08:27:00,43.1,33.6,29.97,SSW,209,0.0,0.0,69,0.00,,,0.00,Wunderground v.1.15,2013-03-05 16:27:00,
2013-03-05 08:33:00,42.5,32.7,29.97,SSW,199,0.0,0.0,68,0.00,,,0.00,Wunderground v.1.15,2013-03-05 16:33:00,
2013-03-05 08:39:00,42.4,32.6,29.97,SE,141,0.0,0.0,68,0.00,,,0.00,Wunderground v.1.15,2013-03-05 16:39:00,
2013-03-05 08:44:00,42.4,32.6,29.97,SW,226,0.0,1.0,68,0.00,,,0.00,Wunderground v.1.15,2013-03-05 16:44:00,
2013-03-05 08:50:00,43.4,33.5,29.97,SW,217,0.0,1.0,68,0.00,,,0.00,Wunderground v.1.15,2013-03-05 16:50:00,
2013-03-05 08:56:00,44.5,33.5,29.97,SW,214,0.0,1.0,65,0.00,,,0.00,Wunderground v.1.15,2013-03-05 16:56:00,
2013-03-05 09:02:00,45.5,34.4,29.97,WSW,238,0.0,0.0,65,0.00,,,0.00,Wunderground v.1.15,2013-03-05 17:02:00,
2013-03-05 09:08:00,45.6,33.7,29.97,WSW,238,0.0,1.0,63,0.00,,,0.00,Wunderground v.1.15,2013-03-05 17:08:00,
2013-03-05 09:13:00,46.8,33.6,29.97,West,268,0.0,0.0,60,0.00,,,0.00,Wunderground v.1.15,2013-03-05 17:13:00,
2013-03-05 09:19:00,47.1,33.9,29.97,West,266,0.0,0.0,60,0.00,,,0.00,Wunderground v.1.15,2013-03-05 17:19:00,
2013-03-05 09:25:00,48.0,33.5,29.97,West,261,0.0,0.0,57,0.00,,,0.00,Wunderground v.1.15,2013-03-05 17:25:00,
2013-03-05 09:31:00,48.9,33.9,29.96,WNW,285,0.0,0.0,56,0.00,,,0.00,Wunderground v.1.15,2013-03-05 17:31:00,
2013-03-05 09:37:00,48.3,32.4,29.96,WNW,290,0.0,0.0,54,0.00,,,0.00,Wunderground v.1.15,2013-03-05 17:37:00,
2013-03-05 09:43:00,47.8,32.4,29.96,ESE,103,0.0,0.0,55,0.00,,,0.00,Wunderground v.1.15,2013-03-05 17:43:00,
2013-03-05 09:49:00,48.5,32.6,29.95,ESE,108,0.0,0.0,54,0.00,,,0.00,Wunderground v.1.15,2013-03-05 17:49:00,
2013-03-05 09:54:00,49.5,33.5,29.95,ENE,59,0.0,0.0,54,0.00,,,0.00,Wunderground v.1.15,2013-03-05 17:54:00,
2013-03-05 10:00:00,49.0,33.1,29.95,ESE,113,0.0,0.0,54,0.00,,,0.00,Wunderground v.1.15,2013-03-05 18:00:00,
2013-03-05 10:06:00,49.1,32.7,29.94,ENE,77,0.0,0.0,53,0.00,,,0.00,Wunderground v.1.15,2013-03-05 18:06:00,
2013-03-05 10:12:00,48.9,32.5,29.94,ESE,103,0.0,0.0,53,0.00,,,0.00,Wunderground v.1.15,2013-03-05 18:12:00,
2013-03-05 10:17:00,49.6,32.7,29.94,ENE,68,0.0,0.0,52,0.00,,,0.00,Wunderground v.1.15,2013-03-05 18:17:00,
2013-03-05 10:23:00,50.0,32.1,29.94,SSE,158,0.0,0.0,50,0.00,,,0.00,Wunderground v.1.15,2013-03-05 18:23:00,
2013-03-05 10:29:00,50.7,32.7,29.93,NE,48,0.0,0.0,50,0.00,,,0.00,Wunderground v.1.15,2013-03-05 18:29:00,
2013-03-05 10:35:00,50.9,31.4,29.93,ESE,111,0.0,0.0,47,0.00,,,0.00,Wunderground v.1.15,2013-03-05 18:35:00,
2013-03-05 10:40:00,51.4,31.8,29.93,SSW,196,0.0,0.0,47,0.00,,,0.00,Wunderground v.1.15,2013-03-05 18:40:00,
2013-03-05 10:46:00,52.2,31.5,29.92,SE,129,0.0,0.0,45,0.00,,,0.00,Wunderground v.1.15,2013-03-05 18:46:00,
2013-03-05 10:52:00,52.3,32.1,29.92,SE,136,0.0,0.0,46,0.00,,,0.00,Wunderground v.1.15,2013-03-05 18:52:00,
2013-03-05 10:58:00,52.9,31.6,29.92,SE,143,0.0,0.0,44,0.00,,,0.00,Wunderground v.1.15,2013-03-05 18:58:00,
2013-03-05 11:04:00,53.3,31.4,29.91,East,101,0.0,0.0,43,0.00,,,0.00,Wunderground v.1.15,2013-03-05 19:04:00,
2013-03-05 11:09:00,53.2,30.1,29.91,SSE,155,0.0,0.0,41,0.00,,,0.00,Wunderground v.1.15,2013-03-05 19:09:00,
2013-03-05 11:15:00,53.8,30.6,29.91,SE,146,0.0,0.0,41,0.00,,,0.00,Wunderground v.1.15,2013-03-05 19:15:00,
2013-03-05 11:21:00,54.6,30.1,29.90,South,187,0.0,0.0,39,0.00,,,0.00,Wunderground v.1.15,2013-03-05 19:21:00,
2013-03-05 11:27:00,54.9,31.0,29.90,ESE,120,0.0,0.0,40,0.00,,,0.00,Wunderground v.1.15,2013-03-05 19:27:00,
2013-03-05 11:33:00,55.3,30.1,29.89,East,90,0.0,0.0,38,0.00,,,0.00,Wunderground v.1.15,2013-03-05 19:33:00,
2013-03-05 11:38:00,54.9,29.7,29.89,East,89,0.0,0.0,38,0.00,,,0.00,Wunderground v.1.15,2013-03-05 19:38:00,
2013-03-05 11:44:00,55.1,29.3,29.88,East,84,0.0,0.0,37,0.00,,,0.00,Wunderground v.1.15,2013-03-05 19:44:00,
2013-03-05 11:50:00,55.9,27.9,29.88,East,79,0.0,0.0,34,0.00,,,0.00,Wunderground v.1.15,2013-03-05 19:50:00,
2013-03-05 11:56:00,56.5,27.0,29.87,ESE,103,0.0,0.0,32,0.00,,,0.00,Wunderground v.1.15,2013-03-05 19:56:00,
2013-03-05 12:02:00,56.7,27.1,29.87,SE,135,0.0,0.0,32,0.00,,,0.00,Wunderground v.1.15,2013-03-05 20:02:00,
2013-03-05 12:07:00,57.3,26.9,29.86,ESE,105,0.0,0.0,31,0.00,,,0.00,Wunderground v.1.15,2013-03-05 20:07:00,
2013-03-05 12:13:00,57.3,26.9,29.85,ESE,121,0.0,0.0,31,0.00,,,0.00,Wunderground v.1.15,2013-03-05 20:13:00,
2013-03-05 12:18:00,57.5,27.8,29.85,ESE,118,0.0,0.0,32,0.00,,,0.00,Wunderground v.1.15,2013-03-05 20:18:00,
2013-03-05 12:24:00,58.2,27.7,29.84,ESE,111,0.0,0.0,31,0.00,,,0.00,Wunderground v.1.15,2013-03-05 20:24:00,
2013-03-05 12:30:00,58.8,26.6,29.84,East,94,0.0,0.0,29,0.00,,,0.00,Wunderground v.1.15,2013-03-05 20:30:00,
2013-03-05 12:36:00,58.8,25.7,29.83,ENE,72,0.0,0.0,28,0.00,,,0.00,Wunderground v.1.15,2013-03-05 20:36:00,
2013-03-05 12:41:00,59.0,26.8,29.82,SE,130,0.0,0.0,29,0.00,,,0.00,Wunderground v.1.15,2013-03-05 20:41:00,
2013-03-05 12:47:00,59.9,25.8,29.82,ESE,120,0.0,0.0,27,0.00,,,0.00,Wunderground v.1.15,2013-03-05 20:47:00,
2013-03-05 12:53:00,60.2,26.1,29.81,East,90,0.0,0.0,27,0.00,,,0.00,Wunderground v.1.15,2013-03-05 20:53:00,
2013-03-05 12:59:00,60.2,25.1,29.81,East,87,0.0,0.0,26,0.00,,,0.00,Wunderground v.1.15,2013-03-05 20:59:00,
2013-03-05 13:05:00,60.4,25.3,29.80,SE,136,0.0,0.0,26,0.00,,,0.00,Wunderground v.1.15,2013-03-05 21:05:00,
2013-03-05 13:10:00,60.8,26.6,29.80,SSE,162,0.0,0.0,27,0.00,,,0.00,Wunderground v.1.15,2013-03-05 21:10:00,
2013-03-05 13:16:00,61.7,25.5,29.80,SSE,150,0.0,0.0,25,0.00,,,0.00,Wunderground v.1.15,2013-03-05 21:16:00,
2013-03-05 13:22:00,61.9,25.7,29.79,SSE,158,0.0,0.0,25,0.00,,,0.00,Wunderground v.1.15,2013-03-05 21:22:00,
2013-03-05 13:28:00,62.2,24.9,29.78,SSE,163,0.0,0.0,24,0.00,,,0.00,Wunderground v.1.15,2013-03-05 21:28:00,
2013-03-05 13:34:00,62.5,25.2,29.78,SE,127,0.0,0.0,24,0.00,,,0.00,Wunderground v.1.15,2013-03-05 21:34:00,
2013-03-05 13:39:00,62.5,24.2,29.77,SSE,147,0.0,0.0,23,0.00,,,0.00,Wunderground v.1.15,2013-03-05 21:39:00,
2013-03-05 13:45:00,62.4,24.1,29.77,SE,145,0.0,0.0,23,0.00,,,0.00,Wunderground v.1.15,2013-03-05 21:45:00,
2013-03-05 13:51:00,62.4,24.1,29.76,ESE,115,0.0,0.0,23,0.00,,,0.00,Wunderground v.1.15,2013-03-05 21:51:00,
2013-03-05 13:57:00,62.5,25.2,29.76,ESE,119,0.0,0.0,24,0.00,,,0.00,Wunderground v.1.15,2013-03-05 21:57:00,
2013-03-05 14:04:00,63.3,23.8,29.75,ESE,115,0.0,0.0,22,0.00,,,0.00,Wunderground v.1.15,2013-03-05 22:04:00,
2013-03-05 14:10:00,64.2,23.4,29.75,South,181,0.0,0.0,21,0.00,,,0.00,Wunderground v.1.15,2013-03-05 22:10:00,
2013-03-05 14:16:00,64.6,22.6,29.74,SE,136,0.0,0.0,20,0.00,,,0.00,Wunderground v.1.15,2013-03-05 22:16:00,
2013-03-05 14:22:00,64.5,23.7,29.74,South,171,0.0,0.0,21,0.00,,,0.00,Wunderground v.1.15,2013-03-05 22:22:00,
2013-03-05 14:28:00,64.7,22.7,29.74,SSW,203,0.0,0.0,20,0.00,,,0.00,Wunderground v.1.15,2013-03-05 22:28:00,
2013-03-05 14:34:00,65.1,21.8,29.73,SSW,200,0.0,0.0,19,0.00,,,0.00,Wunderground v.1.15,2013-03-05 22:34:00,
2013-03-05 14:40:00,65.2,20.6,29.73,SSW,192,0.0,0.0,18,0.00,,,0.00,Wunderground v.1.15,2013-03-05 22:40:00,
2013-03-05 14:45:00,65.3,20.7,29.73,SSW,207,0.0,0.0,18,0.00,,,0.00,Wunderground v.1.15,2013-03-05 22:45:00,
2013-03-05 14:51:00,65.8,16.8,29.72,SSW,201,0.0,0.0,15,0.00,,,0.00,Wunderground v.1.15,2013-03-05 22:51:00,
2013-03-05 14:57:00,65.9,13.6,29.72,SW,231,0.0,0.0,13,0.00,,,0.00,Wunderground v.1.15,2013-03-05 22:57:00,
2013-03-05 15:03:00,65.9,15.3,29.72,SW,220,0.0,0.0,14,0.00,,,0.00,Wunderground v.1.15,2013-03-05 23:03:00,
2013-03-05 15:09:00,65.4,14.9,29.72,SSW,209,0.0,0.0,14,0.00,,,0.00,Wunderground v.1.15,2013-03-05 23:09:00,
2013-03-05 15:14:00,65.2,16.3,29.71,SW,216,0.0,0.0,15,0.00,,,0.00,Wunderground v.1.15,2013-03-05 23:14:00,
2013-03-05 15:20:00,65.2,14.7,29.71,SSW,202,0.0,0.0,14,0.00,,,0.00,Wunderground v.1.15,2013-03-05 23:20:00,
2013-03-05 15:26:00,65.2,14.7,29.71,SW,232,0.0,0.0,14,0.00,,,0.00,Wunderground v.1.15,2013-03-05 23:26:00,
2013-03-05 15:32:00,65.1,16.2,29.71,SW,230,0.0,0.0,15,0.00,,,0.00,Wunderground v.1.15,2013-03-05 23:32:00,
2013-03-05 15:38:00,65.0,17.7,29.71,SSW,193,0.0,0.0,16,0.00,,,0.00,Wunderground v.1.15,2013-03-05 23:38:00,
2013-03-05 15:43:00,64.9,14.5,29.70,SW,223,0.0,0.0,14,0.00,,,0.00,Wunderground v.1.15,2013-03-05 23:43:00,
2013-03-05 15:49:00,65.0,16.2,29.70,SW,219,0.0,0.0,15,0.00,,,0.00,Wunderground v.1.15,2013-03-05 23:49:00,
2013-03-05 15:55:00,64.6,18.7,29.70,WSW,240,0.0,0.0,17,0.00,,,0.00,Wunderground v.1.15,2013-03-05 23:55:00,
2013-03-05 16:00:00,64.6,18.7,29.70,SW,232,0.0,0.0,17,0.00,,,0.00,Wunderground v.1.15,2013-03-06 00:00:00,
2013-03-05 16:05:00,63.8,19.4,29.70,WSW,248,0.0,0.0,18,0.00,,,0.00,Wunderground v.1.15,2013-03-06 00:05:00,
2013-03-05 16:11:00,63.5,19.2,29.69,SW,233,0.0,0.0,18,0.00,,,0.00,Wunderground v.1.15,2013-03-06 00:11:00,
2013-03-05 16:16:00,63.0,20.0,29.69,WSW,238,0.0,0.0,19,0.00,,,0.00,Wunderground v.1.15,2013-03-06 00:16:00,
2013-03-05 16:22:00,62.6,19.7,29.69,WSW,249,0.0,0.0,19,0.00,,,0.00,Wunderground v.1.15,2013-03-06 00:22:00,
2013-03-05 16:28:00,62.5,20.8,29.69,WSW,237,0.0,0.0,20,0.00,,,0.00,Wunderground v.1.15,2013-03-06 00:28:00,
2013-03-05 16:34:00,62.4,20.8,29.69,WSW,243,0.0,0.0,20,0.00,,,0.00,Wunderground v.1.15,2013-03-06 00:34:00,
2013-03-05 16:40:00,62.2,20.6,29.69,SW,224,0.0,0.0,20,0.00,,,0.00,Wunderground v.1.15,2013-03-06 00:40:00,
2013-03-05 16:45:00,61.7,20.2,29.69,WSW,245,0.0,0.0,20,0.00,,,0.00,Wunderground v.1.15,2013-03-06 00:45:00,
2013-03-05 16:51:00,61.1,20.8,29.69,WSW,254,0.0,0.0,21,0.00,,,0.00,Wunderground v.1.15,2013-03-06 00:51:00,
2013-03-05 16:57:00,60.7,21.6,29.68,SW,217,0.0,0.0,22,0.00,,,0.00,Wunderground v.1.15,2013-03-06 00:57:00,
2013-03-05 17:02:00,60.2,21.2,29.68,WSW,243,0.0,0.0,22,0.00,,,0.00,Wunderground v.1.15,2013-03-06 01:02:00,
2013-03-05 17:08:00,59.8,21.9,29.68,WSW,254,0.0,0.0,23,0.00,,,0.00,Wunderground v.1.15,2013-03-06 01:08:00,
2013-03-05 17:14:00,59.3,22.5,29.68,WSW,240,0.0,0.0,24,0.00,,,0.00,Wunderground v.1.15,2013-03-06 01:14:00,
2013-03-05 17:20:00,58.8,22.0,29.68,WSW,243,0.0,0.0,24,0.00,,,0.00,Wunderground v.1.15,2013-03-06 01:20:00,
2013-03-05 17:26:00,58.2,22.5,29.68,WSW,237,0.0,0.0,25,0.00,,,0.00,Wunderground v.1.15,2013-03-06 01:26:00,
2013-03-05 17:32:00,57.6,22.9,29.68,WSW,255,0.0,0.0,26,0.00,,,0.00,Wunderground v.1.15,2013-03-06 01:32:00,
2013-03-05 17:38:00,56.9,23.2,29.68,WSW,238,0.0,0.0,27,0.00,,,0.00,Wunderground v.1.15,2013-03-06 01:38:00,
2013-03-05 17:44:00,56.3,22.7,29.68,WSW,254,0.0,0.0,27,0.00,,,0.00,Wunderground v.1.15,2013-03-06 01:44:00,
2013-03-05 17:49:00,55.8,23.1,29.68,WSW,237,0.0,0.0,28,0.00,,,0.00,Wunderground v.1.15,2013-03-06 01:49:00,
2013-03-05 17:55:00,55.4,23.6,29.68,SW,229,0.0,0.0,29,0.00,,,0.00,Wunderground v.1.15,2013-03-06 01:55:00,
2013-03-05 18:00:00,55.1,24.2,29.68,WSW,245,1.0,10.0,30,0.00,,,0.00,Wunderground v.1.15,2013-03-06 02:00:00,
2013-03-05 18:05:00,54.8,23.9,29.67,WSW,247,6.0,28.0,30,0.00,,,0.00,Wunderground v.1.15,2013-03-06 02:05:00,
2013-03-05 18:11:00,54.5,24.4,29.68,WSW,248,10.0,11.0,31,0.00,,,0.00,Wunderground v.1.15,2013-03-06 02:11:00,
2013-03-05 18:17:00,54.2,24.2,29.68,WSW,241,1.0,11.0,31,0.00,,,0.00,Wunderground v.1.15,2013-03-06 02:17:00,
2013-03-05 18:23:00,54.0,24.0,29.68,SW,214,0.0,0.0,31,0.00,,,0.00,Wunderground v.1.15,2013-03-06 02:23:00,
2013-03-05 18:29:00,53.6,24.4,29.68,SW,234,0.0,0.0,32,0.00,,,0.00,Wunderground v.1.15,2013-03-06 02:29:00,
2013-03-05 18:34:00,53.4,24.2,29.68,WSW,244,0.0,0.0,32,0.00,,,0.00,Wunderground v.1.15,2013-03-06 02:34:00,
2013-03-05 18:40:00,53.2,24.1,29.68,SW,234,0.0,0.0,32,0.00,,,0.00,Wunderground v.1.15,2013-03-06 02:40:00,
2013-03-05 18:46:00,53.0,24.6,29.68,WSW,238,0.0,0.0,33,0.00,,,0.00,Wunderground v.1.15,2013-03-06 02:46:00,
2013-03-05 18:52:00,52.6,25.0,29.68,SW,229,0.0,0.0,34,0.00,,,0.00,Wunderground v.1.15,2013-03-06 02:52:00,
2013-03-05 18:58:00,52.5,25.6,29.68,SW,227,0.0,0.0,35,0.00,,,0.00,Wunderground v.1.15,2013-03-06 02:58:00,
2013-03-05 19:03:00,52.2,25.3,29.68,WSW,238,0.0,0.0,35,0.00,,,0.00,Wunderground v.1.15,2013-03-06 03:03:00,
2013-03-05 19:09:00,51.9,25.8,29.67,SW,229,0.0,0.0,36,0.00,,,0.00,Wunderground v.1.15,2013-03-06 03:09:00,
2013-03-05 19:15:00,51.7,25.6,29.67,SW,224,0.0,0.0,36,0.00,,,0.00,Wunderground v.1.15,2013-03-06 03:15:00,
2013-03-05 19:21:00,51.6,25.5,29.67,SW,233,0.0,0.0,36,0.00,,,0.00,Wunderground v.1.15,2013-03-06 03:21:00,
2013-03-05 19:27:00,51.4,25.3,29.67,WSW,237,0.0,0.0,36,0.00,,,0.00,Wunderground v.1.15,2013-03-06 03:27:00,
2013-03-05 19:32:00,51.3,25.2,29.66,WSW,250,0.0,25.0,36,0.00,,,0.00,Wunderground v.1.15,2013-03-06 03:32:00,
2013-03-05 19:38:00,51.1,25.7,29.66,SW,234,13.0,26.0,37,0.00,,,0.00,Wunderground v.1.15,2013-03-06 03:38:00,
2013-03-05 19:44:00,50.9,25.5,29.66,WSW,240,21.0,28.0,37,0.00,,,0.00,Wunderground v.1.15,2013-03-06 03:44:00,
2013-03-05 19:50:00,50.9,25.5,29.66,SW,236,11.0,11.0,37,0.00,,,0.00,Wunderground v.1.15,2013-03-06 03:50:00,
2013-03-05 19:55:00,50.8,25.4,29.66,WSW,250,4.0,11.0,37,0.00,,,0.00,Wunderground v.1.15,2013-03-06 03:55:00,
2013-03-05 20:00:00,50.5,25.2,29.66,WSW,240,4.0,22.0,37,0.00,,,0.00,Wunderground v.1.15,2013-03-06 04:00:00,
2013-03-05 20:06:00,50.5,25.8,29.65,SW,234,13.0,25.0,38,0.00,,,0.00,Wunderground v.1.15,2013-03-06 04:06:00,
2013-03-05 20:11:00,50.4,25.7,29.66,SW,227,15.0,24.0,38,0.00,,,0.00,Wunderground v.1.15,2013-03-06 04:11:00,
2013-03-05 20:17:00,50.2,25.5,29.65,WSW,249,21.0,30.0,38,0.00,,,0.00,Wunderground v.1.15,2013-03-06 04:17:00,
2013-03-05 20:23:00,50.1,25.5,29.66,WSW,238,21.0,24.0,38,0.00,,,0.00,Wunderground v.1.15,2013-03-06 04:23:00,
2013-03-05 20:29:00,50.0,24.7,29.66,SW,230,20.0,24.0,37,0.00,,,0.00,Wunderground v.1.15,2013-03-06 04:29:00,
2013-03-05 20:35:00,49.8,25.2,29.65,WSW,239,20.0,24.0,38,0.00,,,0.00,Wunderground v.1.15,2013-03-06 04:35:00,
2013-03-05 20:40:00,49.6,25.0,29.65,WSW,250,21.0,21.0,38,0.00,,,0.00,Wunderground v.1.15,2013-03-06 04:40:00,
2013-03-05 20:46:00,49.6,25.6,29.66,WSW,242,21.0,23.0,39,0.00,,,0.00,Wunderground v.1.15,2013-03-06 04:46:00,
2013-03-05 20:52:00,49.5,25.5,29.67,SW,222,20.0,24.0,39,0.00,,,0.00,Wunderground v.1.15,2013-03-06 04:52:00,
2013-03-05 20:58:00,49.3,25.4,29.67,SW,226,15.0,24.0,39,0.00,,,0.00,Wunderground v.1.15,2013-03-06 04:58:00,
2013-03-05 21:00:00,49.2,25.3,29.68,WSW,238,12.0,26.0,39,0.00,,,0.00,Wunderground v.1.15,2013-03-06 05:00:00,
2013-03-05 21:01:00,49.2,25.3,29.68,SW,234,10.0,26.0,39,0.00,,,0.00,Wunderground v.1.15,2013-03-06 05:01:00,
2013-03-05 21:03:00,49.1,25.8,29.68,SW,217,6.0,26.0,40,0.00,,,0.00,Wunderground v.1.15,2013-03-06 05:03:00,
2013-03-05 21:06:00,48.9,25.6,29.68,SW,225,1.0,26.0,40,0.00,,,0.00,Wunderground v.1.15,2013-03-06 05:06:00,
2013-03-05 21:12:00,48.6,25.3,29.69,SW,224,0.0,1.0,40,0.00,,,0.00,Wunderground v.1.15,2013-03-06 05:12:00,
2013-03-05 21:17:00,48.4,25.8,29.69,SW,224,0.0,1.0,41,0.00,,,0.00,Wunderground v.1.15,2013-03-06 05:17:00,
2013-03-05 21:23:00,48.2,25.6,29.70,SSE,153,0.0,2.0,41,0.00,,,0.00,Wunderground v.1.15,2013-03-06 05:23:00,
2013-03-05 21:28:00,47.7,25.7,29.70,SE,138,0.0,2.0,42,0.00,,,0.00,Wunderground v.1.15,2013-03-06 05:28:00,
2013-03-05 21:34:00,47.3,25.9,29.70,SSE,167,0.0,0.0,43,0.00,,,0.00,Wunderground v.1.15,2013-03-06 05:34:00,
2013-03-05 21:40:00,47.0,26.2,29.69,SSW,202,0.0,0.0,44,0.00,,,0.00,Wunderground v.1.15,2013-03-06 05:40:00,
2013-03-05 21:46:00,46.8,26.0,29.68,SW,216,0.0,0.0,44,0.00,,,0.00,Wunderground v.1.15,2013-03-06 05:46:00,
2013-03-05 21:52:00,47.1,25.2,29.68,SW,234,3.0,11.0,42,0.00,,,0.00,Wunderground v.1.15,2013-03-06 05:52:00,
2013-03-05 21:57:00,47.7,24.5,29.69,SSE,153,8.0,15.0,40,0.00,,,0.00,Wunderground v.1.15,2013-03-06 05:57:00,
2013-03-05 22:03:00,47.1,26.3,29.70,SE,127,9.0,10.0,44,0.00,,,0.00,Wunderground v.1.15,2013-03-06 06:03:00,
2013-03-05 22:09:00,45.4,26.3,29.69,SSE,155,6.0,10.0,47,0.00,,,0.00,Wunderground v.1.15,2013-03-06 06:09:00,
2013-03-05 22:15:00,46.0,25.8,29.69,SSW,202,4.0,8.0,45,0.00,,,0.00,Wunderground v.1.15,2013-03-06 06:15:00,
2013-03-05 22:21:00,45.9,25.2,29.68,SW,235,3.0,3.0,44,0.00,,,0.00,Wunderground v.1.15,2013-03-06 06:21:00,
2013-03-05 22:27:00,45.9,25.2,29.69,SSW,193,4.0,9.0,44,0.00,,,0.00,Wunderground v.1.15,2013-03-06 06:27:00,
2013-03-05 22:32:00,45.5,25.4,29.69,SE,127,4.0,4.0,45,0.00,,,0.00,Wunderground v.1.15,2013-03-06 06:32:00,
2013-03-05 22:38:00,44.8,25.3,29.69,SE,138,3.0,4.0,46,0.00,,,0.00,Wunderground v.1.15,2013-03-06 06:38:00,
2013-03-05 22:44:00,45.2,24.6,29.69,SSW,205,1.0,2.0,44,0.00,,,0.00,Wunderground v.1.15,2013-03-06 06:44:00,
2013-03-05 22:50:00,46.2,22.0,29.68,SW,226,6.0,10.0,38,0.00,,,0.00,Wunderground v.1.15,2013-03-06 06:50:00,
2013-03-05 22:55:00,47.0,22.0,29.68,SW,216,12.0,14.0,37,0.00,,,0.00,Wunderground v.1.15,2013-03-06 06:55:00,
2013-03-05 23:00:00,47.8,21.4,29.68,South,189,7.0,10.0,35,0.00,,,0.00,Wunderground v.1.15,2013-03-06 07:00:00,
2013-03-05 23:06:00,47.7,22.0,29.68,SSW,198,5.0,14.0,36,0.00,,,0.00,Wunderground v.1.15,2013-03-06 07:06:00,
2013-03-05 23:11:00,47.7,21.3,29.67,SSW,206,4.0,5.0,35,0.00,,,0.00,Wunderground v.1.15,2013-03-06 07:11:00,
2013-03-05 23:17:00,48.1,21.7,29.67,SSW,199,0.0,5.0,35,0.00,,,0.00,Wunderground v.1.15,2013-03-06 07:17:00,
2013-03-05 23:22:00,48.4,21.3,29.66,South,187,0.0,0.0,34,0.00,,,0.00,Wunderground v.1.15,2013-03-06 07:22:00,
2013-03-05 23:28:00,48.7,20.8,29.66,SSW,198,0.0,0.0,33,0.00,,,0.00,Wunderground v.1.15,2013-03-06 07:28:00,
2013-03-05 23:34:00,48.8,20.9,29.66,SSE,158,0.0,0.0,33,0.00,,,0.00,Wunderground v.1.15,2013-03-06 07:34:00,
2013-03-05 23:40:00,49.0,20.4,29.66,SSW,192,0.0,0.0,32,0.00,,,0.00,Wunderground v.1.15,2013-03-06 07:40:00,
2013-03-05 23:46:00,48.9,20.3,29.66,South,174,0.0,0.0,32,0.00,,,0.00,Wunderground v.1.15,2013-03-06 07:46:00,
2013-03-05 23:51:00,49.3,19.1,29.65,South,173,1.0,1.0,30,0.00,,,0.00,Wunderground v.1.15,2013-03-06 07:51:00,
2013-03-05 23:57:00,49.5,19.3,29.65,SSE,158,1.0,1.0,30,0.00,,,0.00,Wunderground v.1.15,2013-03-06 07:57:00,